sensor_id;sensor_type;location;lat;lon;timestamp;pressure;altitude;pressure_sealevel;temperature;humidity
54329;BME280;40710;51.120;13.136;2023-04-26T00:00:44;99296.88;;;9.84;52.26
54329;BME280;40710;51.120;13.136;2023-04-26T00:03:09;99302.72;;;9.55;53.64
54329;BME280;40710;51.120;13.136;2023-04-26T00:05:33;99294.53;;;10.13;51.86
54329;BME280;40710;51.120;13.136;2023-04-26T00:07:59;99299.88;;;9.59;52.65
54329;BME280;40710;51.120;13.136;2023-04-26T00:10:23;99303.41;;;9.93;52.62
54329;BME280;40710;51.120;13.136;2023-04-26T00:12:48;99297.63;;;9.69;52.48
54329;BME280;40710;51.120;13.136;2023-04-26T00:15:12;99310.31;;;9.07;53.89
54329;BME280;40710;51.120;13.136;2023-04-26T00:17:37;99300.03;;;9.56;53.37
54329;BME280;40710;51.120;13.136;2023-04-26T00:20:01;99305.72;;;9.30;53.29
54329;BME280;40710;51.120;13.136;2023-04-26T00:22:27;99310.84;;;9.33;53.38
54329;BME280;40710;51.120;13.136;2023-04-26T00:24:52;99317.09;;;9.11;53.72
54329;BME280;40710;51.120;13.136;2023-04-26T00:27:16;99309.75;;;9.37;53.66
54329;BME280;40710;51.120;13.136;2023-04-26T00:29:41;99311.06;;;9.63;52.64
54329;BME280;40710;51.120;13.136;2023-04-26T00:32:06;99303.19;;;9.98;51.84
54329;BME280;40710;51.120;13.136;2023-04-26T00:34:34;99306.50;;;9.32;53.36
54329;BME280;40710;51.120;13.136;2023-04-26T00:36:59;99308.38;;;9.64;52.46
54329;BME280;40710;51.120;13.136;2023-04-26T00:39:24;99312.25;;;9.75;52.67
54329;BME280;40710;51.120;13.136;2023-04-26T00:41:48;99326.53;;;8.58;54.92
54329;BME280;40710;51.120;13.136;2023-04-26T00:44:13;99317.16;;;9.09;54.50
54329;BME280;40710;51.120;13.136;2023-04-26T00:46:37;99314.16;;;9.36;53.89
54329;BME280;40710;51.120;13.136;2023-04-26T00:49:02;99313.28;;;9.36;53.92
54329;BME280;40710;51.120;13.136;2023-04-26T00:51:27;99318.22;;;9.24;54.13
54329;BME280;40710;51.120;13.136;2023-04-26T00:53:51;99319.41;;;9.36;53.60
54329;BME280;40710;51.120;13.136;2023-04-26T00:56:16;99318.88;;;9.11;54.63
54329;BME280;40710;51.120;13.136;2023-04-26T00:58:40;99322.78;;;9.38;53.64
54329;BME280;40710;51.120;13.136;2023-04-26T01:01:05;99322.69;;;9.22;54.68
54329;BME280;40710;51.120;13.136;2023-04-26T01:03:30;99315.22;;;9.50;53.72
54329;BME280;40710;51.120;13.136;2023-04-26T01:05:56;99319.66;;;8.75;55.09
54329;BME280;40710;51.120;13.136;2023-04-26T01:08:22;99329.25;;;9.31;54.40
54329;BME280;40710;51.120;13.136;2023-04-26T01:10:50;99330.66;;;9.02;54.84
54329;BME280;40710;51.120;13.136;2023-04-26T01:13:15;99327.25;;;9.00;54.89
54329;BME280;40710;51.120;13.136;2023-04-26T01:15:45;99341.28;;;8.61;56.12
54329;BME280;40710;51.120;13.136;2023-04-26T01:18:11;99337.03;;;8.96;55.42
54329;BME280;40710;51.120;13.136;2023-04-26T01:20:37;99344.25;;;8.91;55.70
54329;BME280;40710;51.120;13.136;2023-04-26T01:23:02;99339.72;;;8.36;56.96
54329;BME280;40710;51.120;13.136;2023-04-26T01:25:27;99345.88;;;8.35;56.87
54329;BME280;40710;51.120;13.136;2023-04-26T01:27:51;99343.81;;;8.62;56.77
54329;BME280;40710;51.120;13.136;2023-04-26T01:30:16;99344.72;;;8.22;57.80
54329;BME280;40710;51.120;13.136;2023-04-26T01:32:40;99340.06;;;9.06;55.97
54329;BME280;40710;51.120;13.136;2023-04-26T01:35:05;99329.63;;;9.04;55.44
54329;BME280;40710;51.120;13.136;2023-04-26T01:37:30;99339.97;;;9.26;55.42
54329;BME280;40710;51.120;13.136;2023-04-26T01:39:55;99338.25;;;9.25;55.28
54329;BME280;40710;51.120;13.136;2023-04-26T01:42:19;99335.13;;;9.00;55.61
54329;BME280;40710;51.120;13.136;2023-04-26T01:44:44;99336.72;;;9.21;55.40
54329;BME280;40710;51.120;13.136;2023-04-26T01:47:09;99343.31;;;8.92;56.14
54329;BME280;40710;51.120;13.136;2023-04-26T01:49:33;99352.59;;;8.61;57.08
54329;BME280;40710;51.120;13.136;2023-04-26T01:51:58;99348.75;;;8.49;57.20
54329;BME280;40710;51.120;13.136;2023-04-26T01:54:23;99347.16;;;9.04;55.81
54329;BME280;40710;51.120;13.136;2023-04-26T01:56:47;99342.84;;;8.65;56.35
54329;BME280;40710;51.120;13.136;2023-04-26T01:59:12;99342.97;;;9.00;55.63
54329;BME280;40710;51.120;13.136;2023-04-26T02:01:36;99342.69;;;8.68;56.33
54329;BME280;40710;51.120;13.136;2023-04-26T02:04:01;99353.97;;;8.70;56.31
54329;BME280;40710;51.120;13.136;2023-04-26T02:06:26;99360.16;;;8.07;57.92
54329;BME280;40710;51.120;13.136;2023-04-26T02:08:51;99355.59;;;8.92;56.32
54329;BME280;40710;51.120;13.136;2023-04-26T02:11:16;99342.44;;;8.54;57.20
54329;BME280;40710;51.120;13.136;2023-04-26T02:13:40;99356.13;;;8.21;57.25
54329;BME280;40710;51.120;13.136;2023-04-26T02:16:05;99353.97;;;8.89;56.32
54329;BME280;40710;51.120;13.136;2023-04-26T02:18:30;99342.09;;;9.18;54.65
54329;BME280;40710;51.120;13.136;2023-04-26T02:20:55;99356.41;;;9.11;55.81
54329;BME280;40710;51.120;13.136;2023-04-26T02:23:19;99346.94;;;8.89;55.91
54329;BME280;40710;51.120;13.136;2023-04-26T02:25:45;99359.13;;;8.72;56.09
54329;BME280;40710;51.120;13.136;2023-04-26T02:28:10;99358.69;;;8.62;56.14
54329;BME280;40710;51.120;13.136;2023-04-26T02:30:35;99357.06;;;8.39;56.57
54329;BME280;40710;51.120;13.136;2023-04-26T02:33:00;99354.31;;;8.81;55.36
54329;BME280;40710;51.120;13.136;2023-04-26T02:35:25;99351.72;;;9.37;54.75
54329;BME280;40710;51.120;13.136;2023-04-26T02:37:50;99347.28;;;9.01;54.72
54329;BME280;40710;51.120;13.136;2023-04-26T02:40:15;99361.59;;;8.35;55.57
54329;BME280;40710;51.120;13.136;2023-04-26T02:42:40;99356.84;;;8.83;55.23
54329;BME280;40710;51.120;13.136;2023-04-26T02:45:05;99355.50;;;8.93;55.17
54329;BME280;40710;51.120;13.136;2023-04-26T02:47:30;99356.72;;;8.67;55.42
54329;BME280;40710;51.120;13.136;2023-04-26T02:49:55;99352.69;;;8.98;54.65
54329;BME280;40710;51.120;13.136;2023-04-26T02:52:19;99350.00;;;9.36;53.52
54329;BME280;40710;51.120;13.136;2023-04-26T02:54:44;99362.97;;;8.23;55.63
54329;BME280;40710;51.120;13.136;2023-04-26T02:57:08;99356.06;;;8.62;55.38
54329;BME280;40710;51.120;13.136;2023-04-26T02:59:33;99348.91;;;9.22;53.28
54329;BME280;40710;51.120;13.136;2023-04-26T03:01:58;99356.66;;;8.87;54.64
54329;BME280;40710;51.120;13.136;2023-04-26T03:04:22;99349.63;;;9.07;53.97
54329;BME280;40710;51.120;13.136;2023-04-26T03:06:47;99357.00;;;8.80;54.67
54329;BME280;40710;51.120;13.136;2023-04-26T03:09:11;99353.63;;;8.57;54.83
54329;BME280;40710;51.120;13.136;2023-04-26T03:11:36;99357.75;;;8.44;55.08
54329;BME280;40710;51.120;13.136;2023-04-26T03:14:00;99346.25;;;8.86;54.27
54329;BME280;40710;51.120;13.136;2023-04-26T03:16:26;99363.81;;;8.24;55.31
54329;BME280;40710;51.120;13.136;2023-04-26T03:18:51;99350.13;;;8.77;54.58
54329;BME280;40710;51.120;13.136;2023-04-26T03:21:17;99355.84;;;8.47;54.74
54329;BME280;40710;51.120;13.136;2023-04-26T03:23:41;99349.91;;;8.63;54.42
54329;BME280;40710;51.120;13.136;2023-04-26T03:26:06;99344.91;;;8.77;53.56
54329;BME280;40710;51.120;13.136;2023-04-26T03:28:30;99347.34;;;8.42;54.22
54329;BME280;40710;51.120;13.136;2023-04-26T03:30:55;99352.56;;;8.42;54.83
54329;BME280;40710;51.120;13.136;2023-04-26T03:33:19;99347.97;;;8.47;55.10
54329;BME280;40710;51.120;13.136;2023-04-26T03:35:44;99344.75;;;9.36;53.71
54329;BME280;40710;51.120;13.136;2023-04-26T03:38:09;99347.56;;;8.36;54.78
54329;BME280;40710;51.120;13.136;2023-04-26T03:40:33;99337.44;;;9.06;52.87
54329;BME280;40710;51.120;13.136;2023-04-26T03:42:58;99347.13;;;8.66;53.71
54329;BME280;40710;51.120;13.136;2023-04-26T03:45:22;99339.34;;;9.02;52.50
54329;BME280;40710;51.120;13.136;2023-04-26T03:47:47;99348.56;;;9.11;52.44
54329;BME280;40710;51.120;13.136;2023-04-26T03:50:12;99346.75;;;8.94;52.60
54329;BME280;40710;51.120;13.136;2023-04-26T03:52:36;99356.91;;;8.43;53.68
54329;BME280;40710;51.120;13.136;2023-04-26T03:55:01;99363.88;;;8.43;54.50
54329;BME280;40710;51.120;13.136;2023-04-26T03:57:25;99358.34;;;8.50;54.49
54329;BME280;40710;51.120;13.136;2023-04-26T03:59:50;99363.41;;;8.54;54.01
54329;BME280;40710;51.120;13.136;2023-04-26T04:02:14;99368.28;;;8.42;54.26
54329;BME280;40710;51.120;13.136;2023-04-26T04:04:39;99380.13;;;7.89;55.90
54329;BME280;40710;51.120;13.136;2023-04-26T04:07:04;99375.16;;;8.24;54.47
54329;BME280;40710;51.120;13.136;2023-04-26T04:09:29;99379.94;;;8.56;54.29
54329;BME280;40710;51.120;13.136;2023-04-26T04:11:53;99379.72;;;8.60;53.99
54329;BME280;40710;51.120;13.136;2023-04-26T04:14:18;99382.13;;;8.24;54.54
54329;BME280;40710;51.120;13.136;2023-04-26T04:16:42;99381.69;;;8.35;54.75
54329;BME280;40710;51.120;13.136;2023-04-26T04:19:07;99381.16;;;8.26;55.23
54329;BME280;40710;51.120;13.136;2023-04-26T04:21:32;99372.34;;;8.08;55.22
54329;BME280;40710;51.120;13.136;2023-04-26T04:23:56;99382.22;;;8.22;55.42
54329;BME280;40710;51.120;13.136;2023-04-26T04:26:21;99383.56;;;7.25;57.52
54329;BME280;40710;51.120;13.136;2023-04-26T04:28:45;99389.03;;;7.41;58.13
54329;BME280;40710;51.120;13.136;2023-04-26T04:31:11;99391.94;;;7.78;57.40
54329;BME280;40710;51.120;13.136;2023-04-26T04:33:36;99389.94;;;8.25;56.22
54329;BME280;40710;51.120;13.136;2023-04-26T04:36:00;99384.78;;;8.03;56.67
54329;BME280;40710;51.120;13.136;2023-04-26T04:38:25;99374.25;;;8.05;56.07
54329;BME280;40710;51.120;13.136;2023-04-26T04:40:49;99380.16;;;8.29;55.38
54329;BME280;40710;51.120;13.136;2023-04-26T04:43:14;99389.75;;;8.30;56.33
54329;BME280;40710;51.120;13.136;2023-04-26T04:45:40;99390.25;;;8.38;56.11
54329;BME280;40710;51.120;13.136;2023-04-26T04:48:04;99395.13;;;8.47;55.67
54329;BME280;40710;51.120;13.136;2023-04-26T04:50:29;99401.69;;;8.15;56.55
54329;BME280;40710;51.120;13.136;2023-04-26T04:52:55;99399.88;;;8.38;56.02
54329;BME280;40710;51.120;13.136;2023-04-26T04:55:19;99408.06;;;8.30;56.06
54329;BME280;40710;51.120;13.136;2023-04-26T04:57:44;99415.44;;;8.42;55.85
54329;BME280;40710;51.120;13.136;2023-04-26T05:00:09;99417.75;;;8.07;56.68
54329;BME280;40710;51.120;13.136;2023-04-26T05:02:36;99413.97;;;8.35;56.20
54329;BME280;40710;51.120;13.136;2023-04-26T05:05:00;99433.31;;;7.68;57.81
54329;BME280;40710;51.120;13.136;2023-04-26T05:07:25;99435.44;;;7.36;58.62
54329;BME280;40710;51.120;13.136;2023-04-26T05:09:49;99431.72;;;7.86;57.92
54329;BME280;40710;51.120;13.136;2023-04-26T05:12:14;99436.72;;;8.12;57.22
54329;BME280;40710;51.120;13.136;2023-04-26T05:14:39;99431.28;;;7.97;57.49
54329;BME280;40710;51.120;13.136;2023-04-26T05:17:04;99441.72;;;7.54;58.22
54329;BME280;40710;51.120;13.136;2023-04-26T05:19:28;99426.06;;;8.17;56.58
54329;BME280;40710;51.120;13.136;2023-04-26T05:21:53;99426.38;;;7.89;56.81
54329;BME280;40710;51.120;13.136;2023-04-26T05:24:18;99437.09;;;7.83;57.60
54329;BME280;40710;51.120;13.136;2023-04-26T05:26:42;99437.56;;;7.92;57.10
54329;BME280;40710;51.120;13.136;2023-04-26T05:29:07;99429.78;;;8.32;55.85
54329;BME280;40710;51.120;13.136;2023-04-26T05:31:31;99434.75;;;7.97;56.75
54329;BME280;40710;51.120;13.136;2023-04-26T05:33:56;99443.81;;;8.10;55.77
54329;BME280;40710;51.120;13.136;2023-04-26T05:36:20;99442.88;;;8.11;55.91
54329;BME280;40710;51.120;13.136;2023-04-26T05:38:45;99445.25;;;8.18;55.83
54329;BME280;40710;51.120;13.136;2023-04-26T05:41:09;99443.53;;;7.96;56.06
54329;BME280;40710;51.120;13.136;2023-04-26T05:43:34;99439.84;;;8.43;55.05
54329;BME280;40710;51.120;13.136;2023-04-26T05:45:58;99446.56;;;8.48;54.37
54329;BME280;40710;51.120;13.136;2023-04-26T05:48:23;99443.03;;;8.49;53.36
54329;BME280;40710;51.120;13.136;2023-04-26T05:50:49;99441.78;;;9.17;52.47
54329;BME280;40710;51.120;13.136;2023-04-26T05:53:14;99441.09;;;9.13;52.17
54329;BME280;40710;51.120;13.136;2023-04-26T05:55:40;99446.44;;;9.12;51.90
54329;BME280;40710;51.120;13.136;2023-04-26T05:58:05;99437.63;;;9.32;51.68
54329;BME280;40710;51.120;13.136;2023-04-26T06:00:29;99452.81;;;8.24;54.08
54329;BME280;40710;51.120;13.136;2023-04-26T06:02:54;99440.88;;;8.99;52.19
54329;BME280;40710;51.120;13.136;2023-04-26T06:05:18;99434.38;;;9.26;51.46
54329;BME280;40710;51.120;13.136;2023-04-26T06:07:43;99440.19;;;9.14;51.44
54329;BME280;40710;51.120;13.136;2023-04-26T06:10:08;99432.69;;;9.06;51.11
54329;BME280;40710;51.120;13.136;2023-04-26T06:12:33;99431.34;;;9.53;50.65
54329;BME280;40710;51.120;13.136;2023-04-26T06:14:57;99428.22;;;9.27;50.53
54329;BME280;40710;51.120;13.136;2023-04-26T06:17:22;99431.09;;;9.40;50.01
54329;BME280;40710;51.120;13.136;2023-04-26T06:19:46;99432.25;;;9.35;50.17
54329;BME280;40710;51.120;13.136;2023-04-26T06:22:11;99428.88;;;9.50;50.32
54329;BME280;40710;51.120;13.136;2023-04-26T06:24:35;99431.53;;;9.12;50.77
54329;BME280;40710;51.120;13.136;2023-04-26T06:27:00;99429.91;;;10.19;51.53
54329;BME280;40710;51.120;13.136;2023-04-26T06:29:24;99428.19;;;10.53;48.11
54329;BME280;40710;51.120;13.136;2023-04-26T06:31:49;99426.63;;;10.33;47.48
54329;BME280;40710;51.120;13.136;2023-04-26T06:34:13;99437.50;;;10.76;47.06
54329;BME280;40710;51.120;13.136;2023-04-26T06:36:38;99438.38;;;9.89;48.02
54329;BME280;40710;51.120;13.136;2023-04-26T06:39:02;99439.53;;;10.01;48.26
54329;BME280;40710;51.120;13.136;2023-04-26T06:41:27;99431.03;;;9.42;49.36
54329;BME280;40710;51.120;13.136;2023-04-26T06:43:52;99440.25;;;10.39;47.53
54329;BME280;40710;51.120;13.136;2023-04-26T06:46:16;99446.41;;;10.03;48.98
54329;BME280;40710;51.120;13.136;2023-04-26T06:48:41;99448.31;;;10.36;48.23
54329;BME280;40710;51.120;13.136;2023-04-26T06:51:06;99443.72;;;10.75;47.07
54329;BME280;40710;51.120;13.136;2023-04-26T06:53:31;99436.31;;;10.82;46.66
54329;BME280;40710;51.120;13.136;2023-04-26T06:55:56;99441.47;;;10.67;46.08
54329;BME280;40710;51.120;13.136;2023-04-26T06:58:21;99437.88;;;10.86;45.57
54329;BME280;40710;51.120;13.136;2023-04-26T07:00:45;99439.16;;;10.94;45.03
54329;BME280;40710;51.120;13.136;2023-04-26T07:03:10;99442.19;;;10.87;45.37
54329;BME280;40710;51.120;13.136;2023-04-26T07:05:35;99426.22;;;11.39;44.72
54329;BME280;40710;51.120;13.136;2023-04-26T07:07:59;99429.31;;;10.82;44.89
54329;BME280;40710;51.120;13.136;2023-04-26T07:10:24;99428.75;;;11.41;43.80
54329;BME280;40710;51.120;13.136;2023-04-26T07:12:50;99436.63;;;10.93;45.00
54329;BME280;40710;51.120;13.136;2023-04-26T07:15:15;99435.97;;;11.37;44.95
54329;BME280;40710;51.120;13.136;2023-04-26T07:17:39;99439.28;;;10.75;45.19
54329;BME280;40710;51.120;13.136;2023-04-26T07:20:04;99432.06;;;11.60;45.93
54329;BME280;40710;51.120;13.136;2023-04-26T07:22:29;99425.50;;;11.83;43.55
54329;BME280;40710;51.120;13.136;2023-04-26T07:24:53;99440.03;;;11.11;44.91
54329;BME280;40710;51.120;13.136;2023-04-26T07:27:18;99422.22;;;11.48;43.58
54329;BME280;40710;51.120;13.136;2023-04-26T07:29:42;99431.50;;;10.90;43.50
54329;BME280;40710;51.120;13.136;2023-04-26T07:32:07;99429.78;;;12.16;43.34
54329;BME280;40710;51.120;13.136;2023-04-26T07:34:32;99421.00;;;12.60;41.96
54329;BME280;40710;51.120;13.136;2023-04-26T07:36:56;99423.13;;;12.25;41.19
54329;BME280;40710;51.120;13.136;2023-04-26T07:39:21;99427.91;;;11.08;42.62
54329;BME280;40710;51.120;13.136;2023-04-26T07:41:46;99413.84;;;13.05;39.89
54329;BME280;40710;51.120;13.136;2023-04-26T07:44:10;99409.97;;;12.97;39.14
54329;BME280;40710;51.120;13.136;2023-04-26T07:46:35;99423.38;;;13.08;40.90
54329;BME280;40710;51.120;13.136;2023-04-26T07:48:59;99432.50;;;12.45;41.30
54329;BME280;40710;51.120;13.136;2023-04-26T07:51:24;99445.78;;;11.02;44.37
54329;BME280;40710;51.120;13.136;2023-04-26T07:53:50;99448.72;;;10.79;44.56
54329;BME280;40710;51.120;13.136;2023-04-26T07:56:15;99441.41;;;11.34;43.40
54329;BME280;40710;51.120;13.136;2023-04-26T07:58:39;99434.78;;;11.90;41.76
54329;BME280;40710;51.120;13.136;2023-04-26T08:01:04;99434.00;;;12.63;41.14
54329;BME280;40710;51.120;13.136;2023-04-26T08:03:29;99421.06;;;13.45;39.52
54329;BME280;40710;51.120;13.136;2023-04-26T08:05:54;99420.44;;;13.27;39.18
54329;BME280;40710;51.120;13.136;2023-04-26T08:08:18;99429.69;;;12.91;39.17
54329;BME280;40710;51.120;13.136;2023-04-26T08:10:43;99429.44;;;12.22;39.97
54329;BME280;40710;51.120;13.136;2023-04-26T08:13:07;99444.63;;;11.55;39.89
54329;BME280;40710;51.120;13.136;2023-04-26T08:15:32;99438.69;;;11.83;40.43
54329;BME280;40710;51.120;13.136;2023-04-26T08:17:57;99430.94;;;12.26;39.19
54329;BME280;40710;51.120;13.136;2023-04-26T08:20:21;99451.81;;;10.70;41.85
54329;BME280;40710;51.120;13.136;2023-04-26T08:22:46;99457.38;;;11.47;41.00
54329;BME280;40710;51.120;13.136;2023-04-26T08:25:10;99434.34;;;14.51;38.01
54329;BME280;40710;51.120;13.136;2023-04-26T08:27:35;99432.31;;;14.29;36.02
54329;BME280;40710;51.120;13.136;2023-04-26T08:30:00;99423.59;;;14.67;34.82
54329;BME280;40710;51.120;13.136;2023-04-26T08:32:25;99428.34;;;13.96;35.71
54329;BME280;40710;51.120;13.136;2023-04-26T08:34:49;99439.31;;;13.63;37.06
54329;BME280;40710;51.120;13.136;2023-04-26T08:37:14;99435.97;;;13.32;37.63
54329;BME280;40710;51.120;13.136;2023-04-26T08:39:38;99436.13;;;13.29;37.12
54329;BME280;40710;51.120;13.136;2023-04-26T08:42:09;99431.66;;;12.88;36.50
54329;BME280;40710;51.120;13.136;2023-04-26T08:44:36;99427.13;;;13.04;36.10
54329;BME280;40710;51.120;13.136;2023-04-26T08:47:06;99447.75;;;12.83;36.96
54329;BME280;40710;51.120;13.136;2023-04-26T08:49:39;99424.59;;;13.86;36.05
54329;BME280;40710;51.120;13.136;2023-04-26T08:52:09;99434.75;;;13.23;36.90
54329;BME280;40710;51.120;13.136;2023-04-26T08:54:36;99438.63;;;13.73;38.54
54329;BME280;40710;51.120;13.136;2023-04-26T08:57:01;99437.06;;;13.56;36.82
54329;BME280;40710;51.120;13.136;2023-04-26T08:59:29;99439.19;;;12.79;36.42
54329;BME280;40710;51.120;13.136;2023-04-26T09:01:54;99428.59;;;13.78;35.70
54329;BME280;40710;51.120;13.136;2023-04-26T09:04:18;99422.47;;;13.51;35.68
54329;BME280;40710;51.120;13.136;2023-04-26T09:06:43;99437.41;;;13.65;36.07
54329;BME280;40710;51.120;13.136;2023-04-26T09:09:12;99431.78;;;13.84;35.67
54329;BME280;40710;51.120;13.136;2023-04-26T09:11:55;99441.53;;;13.13;36.95
54329;BME280;40710;51.120;13.136;2023-04-26T09:14:21;99454.69;;;12.41;37.15
54329;BME280;40710;51.120;13.136;2023-04-26T09:16:45;99459.88;;;12.57;37.40
54329;BME280;40710;51.120;13.136;2023-04-26T09:19:10;99456.59;;;12.53;38.20
54329;BME280;40710;51.120;13.136;2023-04-26T09:21:41;99440.78;;;12.08;38.81
54329;BME280;40710;51.120;13.136;2023-04-26T09:24:07;99442.75;;;12.64;38.19
54329;BME280;40710;51.120;13.136;2023-04-26T09:26:32;99437.75;;;14.13;36.18
54329;BME280;40710;51.120;13.136;2023-04-26T09:29:11;99451.53;;;12.64;37.68
54329;BME280;40710;51.120;13.136;2023-04-26T09:31:39;99443.34;;;13.12;36.93
54329;BME280;40710;51.120;13.136;2023-04-26T09:34:04;99432.22;;;13.36;35.51
54329;BME280;40710;51.120;13.136;2023-04-26T09:36:29;99438.69;;;13.30;35.19
54329;BME280;40710;51.120;13.136;2023-04-26T09:38:53;99438.00;;;14.23;36.12
54329;BME280;40710;51.120;13.136;2023-04-26T09:41:18;99448.94;;;13.91;36.10
54329;BME280;40710;51.120;13.136;2023-04-26T09:43:42;99436.72;;;14.03;35.43
54329;BME280;40710;51.120;13.136;2023-04-26T09:46:07;99447.66;;;12.84;37.06
54329;BME280;40710;51.120;13.136;2023-04-26T09:48:33;99437.38;;;13.52;35.73
54329;BME280;40710;51.120;13.136;2023-04-26T09:51:10;99453.94;;;12.39;37.24
54329;BME280;40710;51.120;13.136;2023-04-26T09:53:44;99449.16;;;12.60;36.69
54329;BME280;40710;51.120;13.136;2023-04-26T09:58:39;99474.84;;;11.48;40.01
54329;BME280;40710;51.120;13.136;2023-04-26T10:01:04;99466.31;;;12.22;39.95
54329;BME280;40710;51.120;13.136;2023-04-26T10:03:30;99459.63;;;13.33;39.17
54329;BME280;40710;51.120;13.136;2023-04-26T10:05:56;99471.41;;;12.25;39.96
54329;BME280;40710;51.120;13.136;2023-04-26T10:08:21;99467.50;;;12.47;39.78
54329;BME280;40710;51.120;13.136;2023-04-26T10:10:46;99433.84;;;15.71;33.98
54329;BME280;40710;51.120;13.136;2023-04-26T10:13:11;99447.94;;;14.72;35.11
54329;BME280;40710;51.120;13.136;2023-04-26T10:15:38;99451.69;;;12.47;36.99
54329;BME280;40710;51.120;13.136;2023-04-26T10:18:02;99438.94;;;13.54;36.34
54329;BME280;40710;51.120;13.136;2023-04-26T10:20:28;99432.97;;;13.65;35.58
54329;BME280;40710;51.120;13.136;2023-04-26T10:22:56;99417.41;;;16.61;31.88
54329;BME280;40710;51.120;13.136;2023-04-26T10:25:34;99424.34;;;17.75;31.04
54329;BME280;40710;51.120;13.136;2023-04-26T10:27:58;99416.00;;;18.54;29.38
54329;BME280;40710;51.120;13.136;2023-04-26T10:30:23;99404.06;;;17.30;29.70
54329;BME280;40710;51.120;13.136;2023-04-26T10:35:22;99430.19;;;15.11;31.81
54329;BME280;40710;51.120;13.136;2023-04-26T10:38:07;99437.81;;;14.38;33.08
54329;BME280;40710;51.120;13.136;2023-04-26T10:40:35;99438.84;;;13.56;33.71
54329;BME280;40710;51.120;13.136;2023-04-26T10:45:33;99439.28;;;14.30;33.90
54329;BME280;40710;51.120;13.136;2023-04-26T10:48:22;99431.31;;;14.96;32.79
54329;BME280;40710;51.120;13.136;2023-04-26T10:53:24;99431.75;;;15.26;32.77
54329;BME280;40710;51.120;13.136;2023-04-26T10:55:49;99433.84;;;15.47;32.93
54329;BME280;40710;51.120;13.136;2023-04-26T10:58:25;99434.50;;;15.38;33.31
54329;BME280;40710;51.120;13.136;2023-04-26T11:01:15;99433.53;;;14.76;32.62
54329;BME280;40710;51.120;13.136;2023-04-26T11:03:40;99436.59;;;14.04;33.61
54329;BME280;40710;51.120;13.136;2023-04-26T11:06:08;99442.28;;;13.71;34.53
54329;BME280;40710;51.120;13.136;2023-04-26T11:08:33;99440.09;;;14.05;34.11
54329;BME280;40710;51.120;13.136;2023-04-26T11:13:30;99438.13;;;13.54;32.87
54329;BME280;40710;51.120;13.136;2023-04-26T11:16:00;99431.78;;;13.84;31.98
54329;BME280;40710;51.120;13.136;2023-04-26T11:18:29;99438.13;;;13.54;32.78
54329;BME280;40710;51.120;13.136;2023-04-26T11:20:54;99446.31;;;13.49;33.91
54329;BME280;40710;51.120;13.136;2023-04-26T11:23:18;99440.53;;;14.11;33.67
54329;BME280;40710;51.120;13.136;2023-04-26T11:25:43;99451.03;;;14.26;33.91
54329;BME280;40710;51.120;13.136;2023-04-26T11:28:08;99449.47;;;12.98;34.60
54329;BME280;40710;51.120;13.136;2023-04-26T11:30:32;99449.66;;;14.20;34.58
54329;BME280;40710;51.120;13.136;2023-04-26T11:33:01;99452.50;;;13.90;35.42
54329;BME280;40710;51.120;13.136;2023-04-26T11:35:27;99451.53;;;12.79;35.59
54329;BME280;40710;51.120;13.136;2023-04-26T11:37:53;99456.81;;;13.22;35.93
54329;BME280;40710;51.120;13.136;2023-04-26T11:40:17;99467.66;;;11.99;36.88
54329;BME280;40710;51.120;13.136;2023-04-26T11:42:43;99459.16;;;11.94;36.97
54329;BME280;40710;51.120;13.136;2023-04-26T11:45:08;99454.81;;;12.97;35.90
54329;BME280;40710;51.120;13.136;2023-04-26T11:47:34;99435.06;;;13.60;34.32
54329;BME280;40710;51.120;13.136;2023-04-26T11:50:00;99440.25;;;13.34;34.61
54329;BME280;40710;51.120;13.136;2023-04-26T11:52:25;99437.25;;;13.80;34.27
54329;BME280;40710;51.120;13.136;2023-04-26T11:55:00;99435.66;;;14.05;33.80
54329;BME280;40710;51.120;13.136;2023-04-26T11:57:29;99419.97;;;14.93;31.78
54329;BME280;40710;51.120;13.136;2023-04-26T12:00:06;99424.38;;;15.56;30.51
54329;BME280;40710;51.120;13.136;2023-04-26T12:02:34;99429.50;;;14.70;30.57
54329;BME280;40710;51.120;13.136;2023-04-26T12:04:58;99438.63;;;14.13;31.54
54329;BME280;40710;51.120;13.136;2023-04-26T12:07:23;99436.16;;;14.37;31.29
54329;BME280;40710;51.120;13.136;2023-04-26T12:09:47;99423.41;;;15.32;30.58
54329;BME280;40710;51.120;13.136;2023-04-26T12:12:12;99434.31;;;14.25;31.86
54329;BME280;40710;51.120;13.136;2023-04-26T12:14:38;99435.28;;;14.37;31.54
54329;BME280;40710;51.120;13.136;2023-04-26T12:17:05;99427.47;;;15.00;31.68
54329;BME280;40710;51.120;13.136;2023-04-26T12:19:34;99428.28;;;14.23;31.60
54329;BME280;40710;51.120;13.136;2023-04-26T12:21:59;99424.50;;;14.53;31.65
54329;BME280;40710;51.120;13.136;2023-04-26T12:24:26;99417.25;;;15.69;30.80
54329;BME280;40710;51.120;13.136;2023-04-26T12:26:53;99423.53;;;15.18;30.88
54329;BME280;40710;51.120;13.136;2023-04-26T12:29:18;99425.81;;;14.86;30.87
54329;BME280;40710;51.120;13.136;2023-04-26T12:31:42;99415.50;;;14.30;31.34
54329;BME280;40710;51.120;13.136;2023-04-26T12:34:07;99421.47;;;14.46;31.73
54329;BME280;40710;51.120;13.136;2023-04-26T12:36:31;99434.69;;;14.46;31.32
54329;BME280;40710;51.120;13.136;2023-04-26T12:38:56;99418.31;;;15.29;31.26
54329;BME280;40710;51.120;13.136;2023-04-26T12:41:21;99425.09;;;14.71;31.96
54329;BME280;40710;51.120;13.136;2023-04-26T12:43:46;99423.91;;;14.09;31.95
54329;BME280;40710;51.120;13.136;2023-04-26T12:46:10;99429.19;;;14.75;31.21
54329;BME280;40710;51.120;13.136;2023-04-26T12:48:35;99427.16;;;14.40;31.56
54329;BME280;40710;51.120;13.136;2023-04-26T12:51:00;99440.00;;;13.37;32.77
54329;BME280;40710;51.120;13.136;2023-04-26T12:53:25;99423.22;;;14.33;31.32
54329;BME280;40710;51.120;13.136;2023-04-26T12:55:49;99431.09;;;14.60;31.86
54329;BME280;40710;51.120;13.136;2023-04-26T12:58:14;99425.16;;;14.95;31.09